FYLZ/LUD METAR and TAF weather

Enter ICAO airport designator
Station Type Date Time Source
FYLZ METAR 2019/12/14 11:00 UTC NOAA

FYLZ 141100Z AUTO 20025KT //// // ////// 26/16 Q1015


Station Type Date Time Source
FYLZ Decoded METAR 2019/12/14 11:00 UTC NOAA

Luderitz / Diaz Point, Namibia (FYLZ) 26-41S 015-15E
Dec 14, 2019 - 06:00 AM EST / 2019.12.14 1100 UTC
Wind: from the SSW (200 degrees) at 29 MPH (25 KT):0
Temperature: 78 F (26 C)
Dew Point: 60 F (16 C)
Relative Humidity: 54%
Pressure (altimeter): 29.97 in. Hg (1015 hPa)
ob: FYLZ 141100Z AUTO 20025KT //// // ////// 26/16 Q1015
cycle: 11

Station Type Date Time Source
FYLZ TAF 2014/11/15 15:19 UTC NOAA

TAF FYLZ 151400Z 1515/1524 18015G28KT CAVOK
BECMG 1518/1520 16020KT

Example: see airport list